Time;durP1;ratioP1;P1;durP2;ratioP2;P2;SDS_P1;SDS_P2;PMS_P1;PMS_P2;Temp;Humidity;BMP_temperature;BMP_pressure;BME280_temperature;BME280_humidity;BME280_pressure;Samples;Min_cycle;Max_cycle;Signal;HPM_P1;HPM_P2
2021/06/02 00:02:10;;;;;;;2.08;1.20;;;;;;;13.61;100.00;101270.38;4904565;29;20029;-74
2021/06/02 00:04:59;;;;;;;4.50;1.10;;;;;;;13.84;100.00;101270.75;4918209;29;20118;-75
2021/06/02 00:07:46;;;;;;;3.38;1.17;;;;;;;13.76;100.00;101263.91;4918804;29;20032;-75
2021/06/02 00:10:32;;;;;;;3.05;1.40;;;;;;;14.02;100.00;101262.44;4918228;29;20099;-75
2021/06/02 00:13:19;;;;;;;2.80;1.20;;;;;;;14.04;100.00;101263.28;4905256;29;20135;-75
2021/06/02 00:16:06;;;;;;;1.52;1.40;;;;;;;13.79;100.00;101258.59;4904424;29;20084;-74
2021/06/02 00:18:52;;;;;;;1.92;1.50;;;;;;;13.96;100.00;101259.94;4918627;29;20051;-74
2021/06/02 00:21:38;;;;;;;1.55;1.20;;;;;;;13.94;100.00;101260.84;4905516;29;20454;-74
2021/06/02 00:24:24;;;;;;;2.35;1.50;;;;;;;13.61;100.00;101265.13;4904359;29;20354;-75
2021/06/02 00:27:12;;;;;;;2.42;1.17;;;;;;;13.77;100.00;101266.53;4917952;29;20032;-75
2021/06/02 00:30:02;;;;;;;1.98;1.40;;;;;;;13.92;100.00;101263.56;4918301;29;20537;-74
2021/06/02 00:32:49;;;;;;;1.60;1.17;;;;;;;13.77;100.00;101263.88;4917681;29;20039;-74
2021/06/02 00:35:35;;;;;;;2.20;1.55;;;;;;;13.47;100.00;101267.16;4918335;29;20043;-74
2021/06/02 00:38:21;;;;;;;2.70;1.60;;;;;;;13.76;100.00;101272.69;4918583;29;20055;-74
2021/06/02 00:41:07;;;;;;;4.38;1.60;;;;;;;14.13;100.00;101276.25;4916910;29;20071;-74
2021/06/02 00:43:54;;;;;;;1.90;1.50;;;;;;;13.62;100.00;101277.38;4918473;29;20024;-74
2021/06/02 00:46:41;;;;;;;1.73;1.30;;;;;;;13.52;100.00;101286.38;4917942;29;20038;-74
2021/06/02 00:49:28;;;;;;;3.13;1.63;;;;;;;13.41;100.00;101282.19;4917772;29;20027;-74
2021/06/02 00:52:13;;;;;;;3.50;1.40;;;;;;;13.69;100.00;101281.63;4917738;29;20028;-74
2021/06/02 00:54:59;;;;;;;2.85;2.00;;;;;;;13.55;100.00;101283.66;4917294;29;20104;-75
2021/06/02 00:57:48;;;;;;;1.60;1.38;;;;;;;13.33;100.00;101279.72;4905149;29;20040;-76
2021/06/02 01:00:34;;;;;;;2.55;1.38;;;;;;;13.55;100.00;101272.28;4918424;29;20122;-75
2021/06/02 01:03:23;;;;;;;2.22;1.63;;;;;;;13.75;100.00;101278.00;4903993;29;20115;-75
2021/06/02 01:06:09;;;;;;;2.65;1.30;;;;;;;13.66;100.00;101279.03;4904114;29;20028;-74
2021/06/02 01:08:59;;;;;;;2.97;1.38;;;;;;;13.76;100.00;101277.97;4917498;29;20036;-75
2021/06/02 01:11:46;;;;;;;6.60;1.35;;;;;;;13.80;100.00;101286.66;4917124;29;20363;-75
2021/06/02 01:14:34;;;;;;;2.20;1.38;;;;;;;14.01;100.00;101279.16;4921369;29;20442;-75
2021/06/02 01:17:23;;;;;;;4.13;1.80;;;;;;;13.79;100.00;101277.03;4921104;29;20347;-74
2021/06/02 01:20:09;;;;;;;3.15;1.50;;;;;;;13.70;100.00;101272.81;4921156;29;20020;-74
2021/06/02 01:22:55;;;;;;;1.77;1.50;;;;;;;13.56;100.00;101274.88;4920826;29;20020;-75
2021/06/02 01:25:43;;;;;;;6.60;1.58;;;;;;;13.64;100.00;101278.22;4907274;29;20032;-75
2021/06/02 01:28:29;;;;;;;2.15;1.50;;;;;;;13.80;100.00;101273.47;4920760;29;20036;-75
2021/06/02 01:31:34;;;;;;;4.68;1.60;;;;;;;13.91;100.00;101274.13;4921399;29;20052;-74
2021/06/02 01:35:03;;;;;;;2.85;1.70;;;;;;;14.03;100.00;101277.34;4920666;29;20036;-74
2021/06/02 01:38:33;;;;;;;2.53;1.60;;;;;;;14.04;100.00;101271.19;4921279;29;20127;-74
2021/06/02 01:41:32;;;;;;;3.60;1.63;;;;;;;14.04;100.00;101278.22;4883074;29;20102;-74
2021/06/02 01:44:30;;;;;;;3.30;1.60;;;;;;;13.60;100.00;101273.91;4920113;29;20043;-74
2021/06/02 01:47:24;;;;;;;2.63;1.58;;;;;;;13.82;100.00;101276.94;4920507;29;20028;-74
2021/06/02 01:50:35;;;;;;;4.00;1.65;;;;;;;13.52;100.00;101272.34;4908440;29;20361;-75
2021/06/02 01:53:47;;;;;;;2.42;1.77;;;;;;;13.53;100.00;101276.69;4907571;29;20035;-75
2021/06/02 01:56:58;;;;;;;4.82;1.70;;;;;;;13.66;100.00;101283.44;4906723;29;20064;-73
2021/06/02 02:00:12;;;;;;;3.20;1.85;;;;;;;13.73;100.00;101285.03;4920391;29;20039;-75
2021/06/02 02:03:06;;;;;;;1.90;1.70;;;;;;;13.81;100.00;101276.09;4921070;29;20020;-74
2021/06/02 02:06:11;;;;;;;4.40;2.00;;;;;;;13.51;100.00;101281.97;4921008;29;20078;-75
2021/06/02 02:09:30;;;;;;;4.20;1.88;;;;;;;13.58;100.00;101280.97;4919172;29;20434;-75
2021/06/02 02:12:37;;;;;;;4.55;1.80;;;;;;;13.41;100.00;101280.44;4919566;29;20123;-75
2021/06/02 02:15:22;;;;;;;3.38;1.90;;;;;;;13.39;100.00;101282.22;4919121;29;20054;-75
2021/06/02 02:18:14;;;;;;;7.22;2.00;;;;;;;13.48;100.00;101282.06;4919778;29;20036;-75
2021/06/02 02:21:37;;;;;;;4.15;2.20;;;;;;;13.41;100.00;101288.34;4919251;29;20028;-75
2021/06/02 02:25:02;;;;;;;5.47;2.25;;;;;;;13.70;100.00;101293.00;4906383;29;20047;-75
2021/06/02 02:27:53;;;;;;;4.22;2.30;;;;;;;13.73;100.00;101301.72;4906287;29;20366;-75
2021/06/02 02:30:48;;;;;;;4.53;2.50;;;;;;;13.70;100.00;101299.16;4907118;29;20049;-74
2021/06/02 02:34:15;;;;;;;4.97;2.28;;;;;;;13.57;100.00;101295.03;4914119;29;20381;-75
2021/06/02 02:37:07;;;;;;;4.80;2.30;;;;;;;13.74;100.00;101302.56;4919517;29;20028;-74
2021/06/02 02:40:06;;;;;;;5.32;2.22;;;;;;;13.86;100.00;101303.19;4906293;29;20136;-74
2021/06/02 02:43:10;;;;;;;5.55;2.17;;;;;;;13.87;100.00;101307.53;4925709;29;20043;-74
2021/06/02 02:46:17;;;;;;;5.75;2.22;;;;;;;13.71;100.00;101308.78;4925127;29;20060;-74
2021/06/02 02:49:22;;;;;;;6.30;2.15;;;;;;;13.76;100.00;101306.06;4920215;29;20473;-75
2021/06/02 02:52:23;;;;;;;7.32;2.13;;;;;;;13.88;100.00;101314.56;4920393;29;20044;-75
2021/06/02 02:55:17;;;;;;;3.28;1.80;;;;;;;14.01;100.00;101310.78;4906922;29;20043;-75
2021/06/02 02:58:43;;;;;;;3.75;1.90;;;;;;;13.99;100.00;101309.06;4919220;29;20100;-75
2021/06/02 03:01:43;;;;;;;3.75;1.77;;;;;;;14.04;100.00;101308.06;4919426;29;20024;-74
2021/06/02 03:04:39;;;;;;;3.42;1.92;;;;;;;13.80;100.00;101305.97;4905220;29;20121;-74
2021/06/02 03:07:31;;;;;;;5.90;2.20;;;;;;;13.76;100.00;101312.19;4905829;29;20488;-75
2021/06/02 03:10:22;;;;;;;5.40;2.03;;;;;;;13.47;100.00;101314.53;4905031;29;20071;-74
2021/06/02 03:13:36;;;;;;;3.45;1.70;;;;;;;13.75;100.00;101310.44;4899143;29;20089;-75
2021/06/02 03:16:29;;;;;;;5.80;2.05;;;;;;;14.03;100.00;101313.38;4900574;29;20021;-75
2021/06/02 03:19:19;;;;;;;6.03;2.05;;;;;;;13.77;100.00;101316.56;4899413;29;20092;-74
2021/06/02 03:22:12;;;;;;;5.40;1.90;;;;;;;13.82;100.00;101317.31;4898840;29;20413;-74
2021/06/02 03:25:18;;;;;;;3.63;2.00;;;;;;;13.61;100.00;101323.03;4899904;29;20032;-74
2021/06/02 03:28:30;;;;;;;7.88;2.25;;;;;;;13.90;100.00;101332.94;4898886;29;20060;-75
2021/06/02 03:31:26;;;;;;;4.70;2.10;;;;;;;13.80;100.00;101324.41;4899890;29;20040;-74
2021/06/02 03:34:22;;;;;;;2.17;1.77;;;;;;;13.32;100.00;101319.25;4898246;29;20033;-74
2021/06/02 03:37:16;;;;;;;4.32;1.98;;;;;;;13.80;100.00;101329.69;4898951;29;20096;-74
2021/06/02 03:40:17;;;;;;;3.25;2.38;;;;;;;13.80;100.00;101332.31;4898511;29;20035;-74
2021/06/02 03:43:33;;;;;;;1.88;1.67;;;;;;;13.81;100.00;101320.88;4899740;29;20039;-74
2021/06/02 03:46:28;;;;;;;4.18;1.70;;;;;;;13.96;100.00;101323.19;4899606;29;20037;-75
2021/06/02 03:49:14;;;;;;;2.22;1.80;;;;;;;14.08;100.00;101329.94;4898830;29;20028;-75
2021/06/02 03:52:04;;;;;;;1.90;1.63;;;;;;;14.21;100.00;101334.94;4898365;29;20028;-75
2021/06/02 03:54:56;;;;;;;3.65;1.70;;;;;;;14.16;100.00;101338.53;4898544;29;20115;-73
2021/06/02 03:58:30;;;;;;;3.30;1.83;;;;;;;14.01;100.00;101337.13;4898382;29;20032;-74
2021/06/02 04:01:48;;;;;;;3.40;1.95;;;;;;;14.03;100.00;101334.44;4900638;29;20095;-75
2021/06/02 04:04:47;;;;;;;3.67;1.58;;;;;;;14.19;100.00;101341.97;4899050;29;20065;-75
2021/06/02 04:07:41;;;;;;;4.32;1.75;;;;;;;14.22;100.00;101341.94;4898453;29;20178;-75
2021/06/02 04:10:29;;;;;;;2.78;2.00;;;;;;;14.32;100.00;101346.09;4898234;29;20116;-75
2021/06/02 04:13:29;;;;;;;6.43;2.00;;;;;;;14.21;100.00;101342.84;4913626;29;20056;-74
2021/06/02 04:16:21;;;;;;;2.20;1.92;;;;;;;13.94;100.00;101350.44;4918157;29;20068;-74
2021/06/02 04:19:08;;;;;;;2.85;1.50;;;;;;;14.11;100.00;101353.59;4918588;29;20331;-75
2021/06/02 04:21:59;;;;;;;6.75;1.98;;;;;;;13.93;100.00;101352.22;4918141;29;20107;-75
2021/06/02 04:24:47;;;;;;;3.70;1.77;;;;;;;13.91;100.00;101356.63;4918196;29;20031;-74
2021/06/02 04:27:34;;;;;;;2.50;1.48;;;;;;;14.12;100.00;101356.16;4917648;29;20035;-75
2021/06/02 04:30:23;;;;;;;2.67;1.38;;;;;;;14.11;100.00;101358.88;4904102;29;20488;-75
2021/06/02 04:33:15;;;;;;;2.70;1.40;;;;;;;14.00;100.00;101364.38;4903736;29;20064;-75
2021/06/02 04:36:02;;;;;;;2.47;1.80;;;;;;;14.39;100.00;101366.16;4917909;29;20115;-74
2021/06/02 04:38:48;;;;;;;4.20;2.03;;;;;;;14.34;100.00;101360.13;4917615;29;20088;-74
2021/06/02 04:41:38;;;;;;;2.38;1.60;;;;;;;14.36;100.00;101365.34;4904025;29;20445;-75
2021/06/02 04:44:26;;;;;;;2.60;1.70;;;;;;;14.15;100.00;101369.28;4917621;29;20266;-74
2021/06/02 04:47:12;;;;;;;2.40;1.58;;;;;;;14.43;100.00;101378.34;4918804;29;20039;-75
2021/06/02 04:50:00;;;;;;;1.92;1.70;;;;;;;14.08;100.00;101374.72;4909147;29;20034;-75
2021/06/02 04:53:13;;;;;;;4.13;1.60;;;;;;;14.45;100.00;101387.13;4920249;29;20100;-74
2021/06/02 04:56:30;;;;;;;3.88;1.70;;;;;;;14.24;100.00;101381.44;4909192;29;20035;-75
2021/06/02 04:59:37;;;;;;;2.50;2.00;;;;;;;14.77;100.00;101384.59;4920224;29;20464;-75
2021/06/02 05:02:29;;;;;;;4.40;1.95;;;;;;;14.47;100.00;101385.28;4908352;29;20449;-74
2021/06/02 05:05:59;;;;;;;3.30;2.50;;;;;;;14.75;100.00;101389.03;4908343;29;20173;-75
2021/06/02 05:09:07;;;;;;;2.88;2.30;;;;;;;15.09;100.00;101401.38;4899493;29;20055;-76
2021/06/02 05:11:56;;;;;;;3.42;1.55;;;;;;;14.69;100.00;101401.50;4908472;29;20059;-75
2021/06/02 05:15:13;;;;;;;4.70;1.80;;;;;;;14.60;100.00;101399.94;4922130;29;20036;-74
2021/06/02 05:18:36;;;;;;;5.55;1.90;;;;;;;14.62;100.00;101406.06;4907863;29;20477;-74
2021/06/02 05:22:05;;;;;;;4.93;1.95;;;;;;;14.64;100.00;101416.56;4920428;29;20032;-74
2021/06/02 05:25:22;;;;;;;4.43;1.67;;;;;;;14.70;100.00;101414.66;4907714;29;20103;-74
2021/06/02 05:28:38;;;;;;;4.22;1.70;;;;;;;15.07;100.00;101419.91;4907437;29;20032;-74
2021/06/02 05:32:01;;;;;;;2.38;1.40;;;;;;;15.13;100.00;101432.09;4922136;29;20055;-74
2021/06/02 05:35:26;;;;;;;2.75;1.63;;;;;;;14.52;100.00;101430.03;4920608;29;20035;-74
2021/06/02 05:38:42;;;;;;;4.95;2.55;;;;;;;14.70;100.00;101430.47;4921234;29;20095;-74
2021/06/02 05:41:49;;;;;;;6.93;1.90;;;;;;;14.67;100.00;101430.53;4920893;29;20358;-74
2021/06/02 05:44:53;;;;;;;3.83;1.77;;;;;;;14.86;100.00;101438.03;4908248;29;20020;-74
2021/06/02 05:48:01;;;;;;;2.30;1.50;;;;;;;14.71;100.00;101441.91;4920590;29;20032;-73
2021/06/02 05:51:24;;;;;;;4.95;1.95;;;;;;;14.67;100.00;101453.44;4920425;29;20031;-74
2021/06/02 05:54:47;;;;;;;4.78;1.75;;;;;;;14.70;100.00;101451.59;4906796;29;20058;-74
2021/06/02 05:57:51;;;;;;;3.88;1.80;;;;;;;14.84;100.00;101451.28;4907011;29;20063;-74
2021/06/02 06:01:15;;;;;;;2.35;1.55;;;;;;;15.39;100.00;101451.69;4907589;29;20078;-75
2021/06/02 06:04:15;;;;;;;3.42;1.70;;;;;;;14.87;100.00;101445.91;4920045;29;20445;-75
2021/06/02 06:07:13;;;;;;;2.80;1.90;;;;;;;14.78;100.00;101439.09;4918915;29;20039;-75
2021/06/02 06:10:36;;;;;;;3.08;1.80;;;;;;;15.30;100.00;101445.75;4920301;29;20111;-75
2021/06/02 06:14:14;;;;;;;3.47;2.20;;;;;;;15.47;100.00;101444.44;4905232;29;20104;-75
2021/06/02 06:17:16;;;;;;;3.13;2.10;;;;;;;15.30;100.00;101451.03;4898586;29;20032;-75
2021/06/02 06:20:29;;;;;;;3.33;2.00;;;;;;;15.60;100.00;101452.91;4906702;29;20059;-75
2021/06/02 06:23:44;;;;;;;7.72;2.10;;;;;;;15.30;100.00;101461.59;4919709;29;20028;-74
2021/06/02 06:26:57;;;;;;;6.13;2.40;;;;;;;15.34;100.00;101461.47;4919972;29;20035;-74
2021/06/02 06:29:52;;;;;;;3.25;1.95;;;;;;;15.06;100.00;101464.84;4919386;29;20434;-74
2021/06/02 06:32:40;;;;;;;2.63;1.80;;;;;;;15.33;100.00;101461.50;4906984;29;20048;-74
2021/06/02 06:35:28;;;;;;;6.78;2.03;;;;;;;15.96;100.00;101457.22;4919491;29;20043;-74
2021/06/02 06:38:21;;;;;;;2.83;2.10;;;;;;;15.78;100.00;101462.97;4920270;29;20437;-75
2021/06/02 06:41:08;;;;;;;3.40;2.78;;;;;;;15.67;100.00;101457.97;4905437;29;20032;-74
2021/06/02 06:43:56;;;;;;;5.90;2.13;;;;;;;15.88;100.00;101446.84;4920954;29;20091;-75
2021/06/02 06:46:45;;;;;;;2.08;1.42;;;;;;;16.09;100.00;101438.31;4920530;29;20093;-75
2021/06/02 06:49:32;;;;;;;5.63;2.80;;;;;;;15.56;100.00;101451.25;4931075;29;20031;-75
2021/06/02 06:52:22;;;;;;;2.42;1.73;;;;;;;16.19;100.00;101446.84;4921063;29;20119;-74
2021/06/02 06:55:09;;;;;;;3.20;1.60;;;;;;;16.10;100.00;101441.81;4925289;29;20108;-74
2021/06/02 06:57:55;;;;;;;6.28;2.20;;;;;;;15.93;100.00;101438.78;4917142;29;20051;-74
2021/06/02 07:00:43;;;;;;;4.45;2.05;;;;;;;16.34;100.00;101447.28;4925956;29;20469;-74
2021/06/02 07:03:29;;;;;;;3.05;1.52;;;;;;;16.39;100.00;101436.56;4905633;29;20191;-74
2021/06/02 07:06:16;;;;;;;4.07;1.77;;;;;;;16.75;100.00;101440.75;4918340;29;20039;-75
2021/06/02 07:09:02;;;;;;;2.25;1.50;;;;;;;16.63;100.00;101439.34;4918910;29;20028;-73
2021/06/02 07:11:49;;;;;;;4.90;1.55;;;;;;;16.94;100.00;101434.84;4918489;29;20494;-74
2021/06/02 07:14:36;;;;;;;2.42;1.60;;;;;;;16.75;100.00;101432.81;4905320;29;20188;-74
2021/06/02 07:17:23;;;;;;;5.30;1.58;;;;;;;16.59;100.00;101435.06;4918592;29;20032;-74
2021/06/02 07:20:13;;;;;;;3.50;1.50;;;;;;;16.54;100.00;101444.06;4905514;29;20024;-75
2021/06/02 07:23:00;;;;;;;2.67;1.38;;;;;;;17.03;100.00;101444.25;4904535;29;20106;-75
2021/06/02 07:25:46;;;;;;;1.50;1.30;;;;;;;17.28;100.00;101440.75;4919018;29;20043;-75
2021/06/02 07:28:40;;;;;;;2.70;1.30;;;;;;;17.64;100.00;101438.69;4917589;29;20039;-75
2021/06/02 07:31:27;;;;;;;3.72;1.48;;;;;;;17.70;100.00;101436.69;4918264;29;20046;-75
2021/06/02 07:34:13;;;;;;;2.80;1.83;;;;;;;17.66;100.00;101436.84;4918259;29;20067;-75
2021/06/02 07:36:58;;;;;;;1.95;1.55;;;;;;;17.71;100.00;101440.19;4904636;29;20039;-75
2021/06/02 07:39:44;;;;;;;2.67;1.30;;;;;;;17.67;100.00;101438.56;4918205;29;20167;-75
2021/06/02 07:42:30;;;;;;;3.03;1.50;;;;;;;17.56;100.00;101441.59;4919082;29;20024;-74
2021/06/02 07:45:17;;;;;;;3.15;1.50;;;;;;;17.12;100.00;101439.53;4904951;29;20024;-73
2021/06/02 07:48:02;;;;;;;3.13;1.70;;;;;;;16.82;100.00;101440.53;4904763;29;20043;-73
2021/06/02 07:50:48;;;;;;;1.85;1.20;;;;;;;17.25;100.00;101440.00;4906765;29;20047;-76
2021/06/02 07:53:34;;;;;;;4.30;1.65;;;;;;;17.15;100.00;101443.84;4917357;29;20028;-74
2021/06/02 07:56:20;;;;;;;1.90;1.25;;;;;;;17.27;100.00;101432.84;4917503;29;20087;-74
2021/06/02 07:59:06;;;;;;;1.50;1.30;;;;;;;17.48;100.00;101437.47;4918157;29;20040;-74
2021/06/02 08:01:51;;;;;;;4.10;1.35;;;;;;;17.53;100.00;101441.69;4917756;29;20413;-74
2021/06/02 08:04:37;;;;;;;1.23;1.13;;;;;;;17.64;100.00;101436.88;4918120;29;20040;-74
2021/06/02 08:07:23;;;;;;;2.45;1.27;;;;;;;17.71;100.00;101434.88;4904304;29;20076;-74
2021/06/02 08:10:10;;;;;;;1.52;1.30;;;;;;;17.37;100.00;101435.13;4918128;29;20103;-74
2021/06/02 08:12:56;;;;;;;1.95;1.40;;;;;;;17.03;100.00;101441.59;4903827;29;20048;-74
2021/06/02 08:15:42;;;;;;;2.25;1.60;;;;;;;17.06;100.00;101436.22;4917988;29;20024;-73
2021/06/02 08:18:28;;;;;;;3.53;2.30;;;;;;;16.72;100.00;101440.88;4917069;29;20032;-75
2021/06/02 08:21:14;;;;;;;5.03;1.92;;;;;;;16.69;100.00;101446.25;4918657;29;20024;-74
2021/06/02 08:24:00;;;;;;;4.85;2.00;;;;;;;16.81;100.00;101441.44;4907949;29;20020;-74
2021/06/02 08:26:47;;;;;;;2.40;1.80;;;;;;;17.31;100.00;101445.97;4922471;29;20414;-74
2021/06/02 08:29:33;;;;;;;4.22;1.90;;;;;;;17.28;100.00;101442.56;4920785;29;20365;-73
2021/06/02 08:32:20;;;;;;;4.78;2.70;;;;;;;17.79;100.00;101444.31;4921132;29;20020;-75
2021/06/02 08:35:18;;;;;;;3.70;2.67;;;;;;;17.62;100.00;101441.38;4921565;29;20047;-74
2021/06/02 08:38:04;;;;;;;2.28;2.08;;;;;;;17.58;100.00;101437.13;4921457;29;20064;-75
2021/06/02 08:40:50;;;;;;;6.20;2.60;;;;;;;17.60;100.00;101439.72;4921427;29;20035;-75
2021/06/02 08:43:35;;;;;;;2.90;2.30;;;;;;;17.95;100.00;101442.84;4921579;29;20461;-75
2021/06/02 08:46:21;;;;;;;3.80;2.42;;;;;;;17.91;100.00;101429.72;4921726;29;20036;-74
2021/06/02 08:49:07;;;;;;;3.13;2.40;;;;;;;17.57;100.00;101431.84;4920352;29;20032;-73
2021/06/02 08:51:54;;;;;;;4.95;2.33;;;;;;;17.69;100.00;101431.44;4922237;29;20024;-74
2021/06/02 08:54:40;;;;;;;3.13;2.10;;;;;;;17.54;100.00;101429.31;4921486;29;20390;-74
2021/06/02 08:57:26;;;;;;;3.33;2.20;;;;;;;18.18;100.00;101431.38;4922171;29;20036;-75
2021/06/02 09:00:15;;;;;;;6.75;2.38;;;;;;;18.34;100.00;101424.63;4920742;29;20028;-74
2021/06/02 09:03:00;;;;;;;2.45;2.13;;;;;;;18.72;100.00;101434.59;4908721;29;20042;-74
2021/06/02 09:05:49;;;;;;;4.60;2.10;;;;;;;19.20;100.00;101422.88;4920533;29;20111;-74
2021/06/02 09:08:38;;;;;;;4.38;2.83;;;;;;;18.95;100.00;101424.81;4921190;29;20413;-75
2021/06/02 09:11:25;;;;;;;3.33;2.20;;;;;;;18.62;100.00;101418.16;4920843;29;20024;-74
2021/06/02 09:14:26;;;;;;;3.28;2.20;;;;;;;18.56;100.00;101417.53;4920661;29;20059;-73
2021/06/02 09:17:15;;;;;;;2.65;2.10;;;;;;;18.35;100.00;101415.72;4920338;29;20032;-73
2021/06/02 09:20:01;;;;;;;2.50;1.92;;;;;;;18.88;100.00;101415.34;4921773;29;20035;-74
2021/06/02 09:22:46;;;;;;;2.60;2.05;;;;;;;18.68;100.00;101401.13;4908176;29;20032;-74
2021/06/02 09:25:32;;;;;;;4.90;2.38;;;;;;;19.26;100.00;101399.66;4908908;29;20028;-74
2021/06/02 09:28:18;;;;;;;3.10;2.03;;;;;;;18.81;100.00;101402.41;4907234;29;20032;-74
2021/06/02 09:31:28;;;;;;;3.15;2.72;;;;;;;19.12;100.00;101402.84;4906897;29;20035;-75
2021/06/02 09:34:24;;;;;;;3.20;2.90;;;;;;;18.71;100.00;101399.25;4919773;29;20028;-75
2021/06/02 09:37:14;;;;;;;3.80;3.00;;;;;;;19.17;100.00;101399.06;4919240;29;20047;-75
2021/06/02 09:40:00;;;;;;;3.45;3.08;;;;;;;19.57;100.00;101395.59;4920621;29;20032;-74
2021/06/02 09:42:46;;;;;;;4.18;3.10;;;;;;;19.06;100.00;101408.44;4906452;29;20047;-74
2021/06/02 09:45:34;;;;;;;4.93;2.97;;;;;;;19.12;100.00;101413.47;4921206;29;20043;-74
2021/06/02 09:48:21;;;;;;;4.85;2.47;;;;;;;18.78;100.00;101411.31;4920722;29;20055;-75
2021/06/02 09:51:34;;;;;;;4.45;3.45;;;;;;;19.12;100.00;101400.19;4919360;29;20028;-75
2021/06/02 09:54:24;;;;;;;3.70;2.85;;;;;;;18.85;100.00;101404.84;4906259;29;20347;-74
2021/06/02 09:57:17;;;;;;;3.35;3.05;;;;;;;18.78;100.00;101402.50;4920485;29;20040;-75
2021/06/02 10:00:10;;;;;;;3.00;2.70;;;;;;;18.85;100.00;101406.66;4921174;29;20035;-76
2021/06/02 10:03:21;;;;;;;3.88;2.50;;;;;;;19.01;100.00;101407.75;4920697;29;20039;-75
2021/06/02 10:06:18;;;;;;;3.42;2.60;;;;;;;19.42;100.00;101400.72;4922059;29;20032;-77
2021/06/02 10:09:27;;;;;;;3.60;2.80;;;;;;;19.34;100.00;101397.53;4922005;29;20028;-77
2021/06/02 10:12:14;;;;;;;2.63;2.33;;;;;;;19.17;100.00;101409.69;4919703;29;20483;-73
2021/06/02 10:15:00;;;;;;;3.00;2.70;;;;;;;19.92;100.00;101400.25;4920901;29;20035;-74
2021/06/02 10:17:46;;;;;;;3.97;2.60;;;;;;;19.94;100.00;101409.03;4920458;29;20055;-74
2021/06/02 10:20:37;;;;;;;3.13;2.58;;;;;;;19.70;100.00;101399.47;4920634;29;20035;-74
2021/06/02 10:23:30;;;;;;;4.07;2.70;;;;;;;20.18;100.00;101405.28;4906896;29;20035;-74
2021/06/02 10:26:18;;;;;;;2.75;1.92;;;;;;;19.77;100.00;101400.06;4923600;29;20033;-75
2021/06/02 10:29:03;;;;;;;2.05;1.85;;;;;;;19.57;100.00;101406.22;4919366;29;20044;-75
2021/06/02 10:31:49;;;;;;;3.60;2.50;;;;;;;20.01;100.00;101405.13;4919940;29;20028;-75
2021/06/02 10:34:35;;;;;;;4.68;2.85;;;;;;;19.99;100.00;101409.69;4919810;29;20107;-75
2021/06/02 10:37:24;;;;;;;5.47;3.05;;;;;;;20.32;100.00;101408.16;4919805;29;20399;-75
2021/06/02 10:40:19;;;;;;;5.57;3.15;;;;;;;19.94;100.00;101406.38;4920748;29;20079;-77
2021/06/02 10:43:09;;;;;;;3.47;3.00;;;;;;;19.88;100.00;101406.63;4905535;29;20067;-74
2021/06/02 10:46:23;;;;;;;3.70;3.30;;;;;;;19.48;100.00;101408.47;4905484;29;20047;-75
2021/06/02 10:49:12;;;;;;;3.53;3.22;;;;;;;19.30;100.00;101414.53;4920199;29;20032;-75
2021/06/02 10:51:58;;;;;;;3.55;2.70;;;;;;;19.47;100.00;101412.91;4918839;29;20038;-75
2021/06/02 10:54:44;;;;;;;4.03;2.85;;;;;;;19.22;100.00;101417.50;4919572;29;20031;-75
2021/06/02 10:57:29;;;;;;;3.85;2.80;;;;;;;19.25;100.00;101409.41;4919580;29;20480;-74
2021/06/02 11:00:16;;;;;;;2.85;2.63;;;;;;;19.11;100.00;101417.06;4919302;29;20036;-74
2021/06/02 11:03:23;;;;;;;2.67;2.30;;;;;;;19.27;100.00;101412.88;4905677;29;20123;-74
2021/06/02 11:06:14;;;;;;;2.53;2.20;;;;;;;19.28;100.00;101411.09;4918520;29;20510;-74
2021/06/02 11:09:00;;;;;;;2.63;2.28;;;;;;;19.25;100.00;101409.41;4919533;29;20051;-75
2021/06/02 11:11:46;;;;;;;3.20;1.98;;;;;;;19.75;100.00;101407.22;4906311;29;20123;-75
2021/06/02 11:14:32;;;;;;;2.97;2.08;;;;;;;20.10;100.00;101407.44;4919014;29;20139;-75
2021/06/02 11:17:19;;;;;;;2.33;2.10;;;;;;;20.39;100.00;101420.25;4905238;29;20449;-76
2021/06/02 11:20:08;;;;;;;2.65;2.00;;;;;;;20.26;100.00;101419.09;4924543;29;20072;-75
2021/06/02 11:23:10;;;;;;;2.95;1.80;;;;;;;19.77;100.00;101416.88;4935677;29;20043;-76
2021/06/02 11:26:26;;;;;;;3.42;2.58;;;;;;;19.34;100.00;101417.00;4932578;29;20039;-74
2021/06/02 11:29:15;;;;;;;4.63;2.30;;;;;;;19.12;100.00;101421.44;4926032;29;20476;-74
2021/06/02 11:32:14;;;;;;;2.10;1.90;;;;;;;19.06;100.00;101419.91;4928187;29;20052;-75
2021/06/02 11:35:03;;;;;;;4.35;1.80;;;;;;;19.09;100.00;101425.09;4929808;29;20361;-76
2021/06/02 11:37:49;;;;;;;1.80;1.52;;;;;;;19.26;100.00;101419.13;4927019;29;20047;-76
2021/06/02 11:40:35;;;;;;;2.40;1.60;;;;;;;19.54;100.00;101413.50;4922241;29;20031;-75
2021/06/02 11:43:22;;;;;;;2.15;1.73;;;;;;;19.15;100.00;101429.28;4919495;29;20062;-73
2021/06/02 11:46:08;;;;;;;2.38;1.88;;;;;;;18.37;100.00;101416.53;4918642;29;20076;-74
2021/06/02 11:48:53;;;;;;;3.97;2.10;;;;;;;18.93;100.00;101420.50;4905105;29;20038;-75
2021/06/02 11:51:40;;;;;;;2.30;2.00;;;;;;;19.04;100.00;101418.25;4918173;29;20059;-75
2021/06/02 11:54:25;;;;;;;3.65;2.17;;;;;;;19.16;100.00;101409.75;4918302;29;20044;-75
2021/06/02 11:57:31;;;;;;;2.30;1.90;;;;;;;19.22;100.00;101410.38;4917424;29;20458;-75
2021/06/02 12:00:18;;;;;;;3.00;1.80;;;;;;;19.31;100.00;101410.94;4905700;29;20020;-75
2021/06/02 12:03:09;;;;;;;2.10;1.88;;;;;;;19.77;100.00;101405.38;4904747;29;20070;-75
2021/06/02 12:05:55;;;;;;;4.70;2.25;;;;;;;19.09;100.00;101414.47;4918579;29;20036;-75
2021/06/02 12:08:42;;;;;;;1.88;1.52;;;;;;;19.51;100.00;101413.63;4917500;29;20107;-75
2021/06/02 12:11:28;;;;;;;1.65;1.55;;;;;;;20.08;100.00;101408.38;4917138;29;20377;-75
2021/06/02 12:14:20;;;;;;;3.40;2.30;;;;;;;19.86;100.00;101397.88;4918501;29;20517;-75
2021/06/02 12:17:06;;;;;;;3.08;2.33;;;;;;;19.99;100.00;101404.34;4918238;29;20036;-75
2021/06/02 12:19:52;;;;;;;3.60;2.00;;;;;;;19.68;100.00;101398.66;4917461;29;20369;-74
2021/06/02 12:22:39;;;;;;;1.98;1.70;;;;;;;19.99;100.00;101393.72;4918821;29;20027;-74
2021/06/02 12:25:26;;;;;;;3.47;2.00;;;;;;;19.87;100.00;101390.72;4904453;29;20032;-74
2021/06/02 12:28:13;;;;;;;3.47;1.80;;;;;;;19.74;100.00;101393.09;4917653;29;20032;-75
2021/06/02 12:30:59;;;;;;;2.75;1.50;;;;;;;19.77;100.00;101398.25;4918048;29;20453;-74
2021/06/02 12:33:44;;;;;;;1.88;1.60;;;;;;;19.56;100.00;101395.69;4919030;29;20103;-75
2021/06/02 12:37:02;;;;;;;3.67;1.55;;;;;;;19.49;100.00;101402.19;4917979;29;20488;-75
2021/06/02 12:39:48;;;;;;;4.65;1.90;;;;;;;19.54;100.00;101403.72;4892071;29;20171;-76
2021/06/02 12:42:43;;;;;;;2.65;1.38;;;;;;;18.87;100.00;101404.78;4919705;29;20046;-74
2021/06/02 12:45:29;;;;;;;1.48;1.30;;;;;;;19.12;100.00;101406.38;4921050;29;20107;-76
2021/06/02 12:48:17;;;;;;;2.00;1.40;;;;;;;19.02;100.00;101406.81;4917652;29;20032;-74
2021/06/02 12:51:05;;;;;;;4.03;3.05;;;;;;;19.00;100.00;101408.66;4905750;29;20032;-75
2021/06/02 12:53:51;;;;;;;2.55;2.22;;;;;;;19.40;100.00;101395.47;4904309;29;20028;-75
2021/06/02 12:56:41;;;;;;;2.25;2.05;;;;;;;19.49;100.00;101396.88;4904980;29;20056;-75
2021/06/02 12:59:36;;;;;;;3.38;3.05;;;;;;;19.47;100.00;101394.28;4917762;29;20032;-74
2021/06/02 13:02:22;;;;;;;2.97;2.28;;;;;;;19.30;100.00;101404.78;4904362;29;20127;-74
2021/06/02 13:05:09;;;;;;;5.95;2.40;;;;;;;19.68;100.00;101395.16;4903968;29;20047;-74
2021/06/02 13:08:10;;;;;;;3.22;2.60;;;;;;;19.52;100.00;101399.41;4918172;29;20096;-74
2021/06/02 13:11:09;;;;;;;4.07;2.50;;;;;;;19.24;100.00;101407.69;4921321;29;20402;-75
2021/06/02 13:14:01;;;;;;;6.10;3.78;;;;;;;19.23;100.00;101405.94;4921576;29;20143;-75
2021/06/02 13:16:54;;;;;;;4.88;4.07;;;;;;;19.67;100.00;101404.91;4921214;29;20060;-74
2021/06/02 13:19:43;;;;;;;3.42;3.13;;;;;;;19.26;100.00;101404.97;4921372;29;20039;-75
2021/06/02 13:22:29;;;;;;;3.25;2.30;;;;;;;19.62;100.00;101398.06;4920588;29;20465;-75